createdAt,value
2019-05-12T00:00:10.092Z,13.00
2019-05-12T00:02:13.913Z,12.90
2019-05-12T00:04:18.865Z,12.90
2019-05-12T00:06:22.782Z,12.80
2019-05-12T00:08:27.716Z,12.90
2019-05-12T00:10:31.648Z,12.80
2019-05-12T00:12:35.359Z,12.90
2019-05-12T00:14:39.084Z,12.90
2019-05-12T00:16:42.850Z,12.90
2019-05-12T00:18:48.312Z,12.90
2019-05-12T00:20:51.994Z,12.80
2019-05-12T00:22:58.149Z,12.90
2019-05-12T00:25:02.241Z,12.90
2019-05-12T00:27:10.611Z,12.80
2019-05-12T00:29:14.509Z,12.80
2019-05-12T00:31:18.865Z,12.90
2019-05-12T00:33:22.619Z,12.90
2019-05-12T00:35:28.350Z,12.80
2019-05-12T00:37:31.689Z,12.80
2019-05-12T00:39:35.476Z,12.80
2019-05-12T00:41:39.266Z,12.80
2019-05-12T00:43:43.014Z,12.80
2019-05-12T00:45:48.208Z,12.80
2019-05-12T00:47:52.154Z,12.80
2019-05-12T00:49:55.873Z,12.80
2019-05-12T00:52:00.251Z,12.70
2019-05-12T00:54:04.128Z,12.70
2019-05-12T00:56:08.483Z,12.70
2019-05-12T00:58:12.442Z,12.80
2019-05-12T01:00:17.904Z,12.70
2019-05-12T01:02:21.743Z,12.70
2019-05-12T01:04:25.456Z,12.80
2019-05-12T01:06:29.165Z,12.70
2019-05-12T01:08:32.995Z,12.70
2019-05-12T01:10:38.963Z,12.70
2019-05-12T01:12:42.107Z,12.70
2019-05-12T01:14:47.807Z,12.70
2019-05-12T01:16:51.241Z,12.70
2019-05-12T01:18:54.974Z,12.70
2019-05-12T01:20:58.689Z,12.60
2019-05-12T01:23:02.440Z,12.60
2019-05-12T01:25:08.655Z,12.60
2019-05-12T01:27:12.077Z,12.60
2019-05-12T01:29:17.682Z,12.50
2019-05-12T01:31:23.173Z,12.50
2019-05-12T01:33:27.714Z,12.60
2019-05-12T01:35:31.737Z,12.60
2019-05-12T01:37:35.566Z,12.50
2019-05-12T01:39:39.292Z,12.50
2019-05-12T01:41:43.013Z,12.50
2019-05-12T01:43:48.735Z,12.40
2019-05-12T01:45:52.176Z,12.40
2019-05-12T01:47:55.904Z,12.50
2019-05-12T01:49:59.644Z,12.40
2019-05-12T01:52:03.352Z,12.40
2019-05-12T01:54:13.911Z,12.30
2019-05-12T01:56:12.600Z,12.30
2019-05-12T01:58:19.052Z,12.40
2019-05-12T02:00:22.715Z,12.30
2019-05-12T02:02:28.497Z,12.30
2019-05-12T02:04:39.403Z,12.30
2019-05-12T02:06:43.494Z,12.30
2019-05-12T02:08:51.693Z,12.30
2019-05-12T02:11:13.365Z,12.30
2019-05-12T02:13:18.270Z,12.30
2019-05-12T02:15:22.409Z,12.30
2019-05-12T02:17:28.343Z,12.30
2019-05-12T02:19:31.582Z,12.20
2019-05-12T02:21:35.340Z,12.20
2019-05-12T02:23:39.046Z,12.20
2019-05-12T02:25:42.828Z,12.20
2019-05-12T02:27:47.667Z,12.20
2019-05-12T02:29:51.573Z,12.20
2019-05-12T02:31:55.310Z,12.20
2019-05-12T02:33:59.052Z,12.20
2019-05-12T02:36:04.757Z,12.20
2019-05-12T02:38:08.212Z,12.20
2019-05-12T02:40:15.108Z,12.20
2019-05-12T02:42:18.169Z,12.20
2019-05-12T02:44:24.808Z,12.30
2019-05-12T02:46:27.318Z,12.20
2019-05-12T02:48:31.077Z,12.20
2019-05-12T02:50:37.354Z,12.20
2019-05-12T02:52:44.309Z,12.10
2019-05-12T02:54:55.524Z,12.20
2019-05-12T02:56:55.114Z,12.20
2019-05-12T02:59:04.865Z,12.20
2019-05-12T03:01:07.833Z,12.20
2019-05-12T03:03:14.577Z,12.10
2019-05-12T03:05:18.850Z,12.20
2019-05-12T03:07:25.635Z,12.20
2019-05-12T03:09:34.884Z,12.20
2019-05-12T03:11:37.459Z,12.20
2019-05-12T03:13:41.171Z,12.20
2019-05-12T03:15:44.923Z,12.20
2019-05-12T03:17:48.731Z,12.10
2019-05-12T03:19:55.479Z,12.10
2019-05-12T03:21:57.890Z,12.10
2019-05-12T03:24:01.612Z,12.10
2019-05-12T03:26:05.517Z,12.10
2019-05-12T03:28:09.685Z,12.00
2019-05-12T03:30:18.992Z,12.00
2019-05-12T03:32:19.058Z,12.00
2019-05-12T03:34:28.711Z,12.00
2019-05-12T03:36:34.588Z,12.00
2019-05-12T03:38:35.980Z,12.00
2019-05-12T03:40:39.159Z,12.00
2019-05-12T03:42:44.477Z,12.00
2019-05-12T03:44:48.716Z,12.00
2019-05-12T03:46:54.311Z,11.90
2019-05-12T03:48:57.838Z,11.90
2019-05-12T03:51:01.573Z,11.90
2019-05-12T03:53:10.195Z,11.90
2019-05-12T03:55:29.721Z,11.90
2019-05-12T03:57:16.429Z,11.90
2019-05-12T03:59:20.234Z,11.80
2019-05-12T04:01:25.523Z,11.80
2019-05-12T04:03:29.610Z,11.80
2019-05-12T04:05:34.878Z,11.70
2019-05-12T04:07:39.110Z,11.60
2019-05-12T04:09:45.126Z,11.60
2019-05-12T04:11:48.398Z,11.60
2019-05-12T04:13:54.824Z,11.50
2019-05-12T04:15:57.513Z,11.50
2019-05-12T04:18:01.272Z,11.30
2019-05-12T04:20:06.579Z,11.30
2019-05-12T04:22:10.333Z,11.20
2019-05-12T04:24:14.433Z,11.20
2019-05-12T04:26:18.453Z,11.20
2019-05-12T04:28:24.548Z,11.20
2019-05-12T04:30:27.608Z,11.10
2019-05-12T04:32:31.323Z,11.00
2019-05-12T04:34:35.046Z,11.00
2019-05-12T04:36:38.768Z,10.90
2019-05-12T04:38:45.061Z,10.90
2019-05-12T04:40:48.386Z,10.80
2019-05-12T04:42:54.780Z,10.80
2019-05-12T04:44:57.526Z,10.70
2019-05-12T04:47:01.229Z,10.70
2019-05-12T04:49:05.577Z,10.50
2019-05-12T04:51:09.526Z,10.50
2019-05-12T04:53:14.359Z,10.40
2019-05-12T04:55:19.847Z,10.30
2019-05-12T04:57:25.374Z,10.20
2019-05-12T04:59:28.986Z,10.20
2019-05-12T05:01:34.726Z,10.20
2019-05-12T05:03:38.209Z,10.20
2019-05-12T05:05:44.382Z,10.10
2019-05-12T05:07:47.388Z,10.00
2019-05-12T05:09:51.109Z,10.10
2019-05-12T05:11:54.884Z,9.90
2019-05-12T05:13:58.620Z,9.80
2019-05-12T05:16:05.226Z,9.70
2019-05-12T05:18:07.719Z,9.50
2019-05-12T05:20:13.633Z,9.40
2019-05-12T05:22:17.087Z,9.40
2019-05-12T05:24:23.408Z,9.30
2019-05-12T05:26:28.196Z,9.30
2019-05-12T05:28:33.835Z,9.30
2019-05-12T05:30:37.043Z,9.10
2019-05-12T05:32:40.750Z,9.00
2019-05-12T05:34:46.178Z,9.00
2019-05-12T05:36:51.139Z,8.90
2019-05-12T05:38:57.365Z,8.90
2019-05-12T05:41:05.893Z,8.70
2019-05-12T05:43:18.274Z,8.70
2019-05-12T05:45:19.597Z,8.80
2019-05-12T05:47:19.874Z,8.70
2019-05-12T05:49:23.820Z,8.70
2019-05-12T05:51:27.714Z,8.60
2019-05-12T05:53:33.442Z,8.40
2019-05-12T05:55:36.801Z,8.40
2019-05-12T05:57:40.555Z,8.30
2019-05-12T05:59:44.925Z,8.40
2019-05-12T06:01:51.953Z,8.40
2019-05-12T06:03:58.321Z,8.20
2019-05-12T06:06:01.381Z,8.30
2019-05-12T06:08:09.608Z,8.20
2019-05-12T06:10:10.481Z,8.00
2019-05-12T06:12:14.181Z,8.10
2019-05-12T06:14:17.912Z,8.00
2019-05-12T06:16:24.942Z,7.90
2019-05-12T06:18:29.013Z,7.90
2019-05-12T06:20:37.499Z,7.80
2019-05-12T06:22:38.466Z,7.80
2019-05-12T06:24:44.144Z,7.90
2019-05-12T06:26:59.543Z,7.90
2019-05-12T06:28:55.923Z,8.00
2019-05-12T06:30:58.518Z,7.90
2019-05-12T06:33:04.189Z,7.80
2019-05-12T06:35:08.012Z,7.70
2019-05-12T08:00:21.086Z,7.90
2019-05-12T08:02:23.224Z,8.10
2019-05-12T08:04:31.666Z,8.20
2019-05-12T08:06:41.426Z,8.30
2019-05-12T08:08:43.139Z,8.30
2019-05-12T08:10:44.357Z,8.30
2019-05-12T08:12:51.105Z,8.40
2019-05-12T08:14:54.156Z,8.30
2019-05-12T08:17:02.047Z,8.30
2019-05-12T08:19:03.918Z,8.30
2019-05-12T08:21:08.025Z,8.40
2019-05-12T08:23:13.925Z,8.40
2019-05-12T08:25:18.719Z,8.50
2019-05-12T08:27:23.390Z,8.60
2019-05-12T08:29:27.305Z,8.60
2019-05-12T08:31:33.155Z,8.50
2019-05-12T08:33:36.784Z,8.60
2019-05-12T08:35:40.485Z,8.60
2019-05-12T08:37:44.310Z,8.70
2019-05-12T08:39:53.298Z,8.80
2019-05-12T08:41:53.683Z,8.70
2019-05-12T08:43:58.445Z,8.80
2019-05-12T08:46:10.030Z,8.80
2019-05-12T08:48:10.171Z,8.80
2019-05-12T08:50:13.686Z,8.80
2019-05-12T08:52:17.602Z,8.70
2019-05-12T08:54:23.303Z,8.60
2019-05-12T08:56:26.868Z,8.70
2019-05-12T08:58:39.207Z,8.70
2019-05-12T09:00:45.421Z,8.80
2019-05-12T09:02:46.066Z,8.70
2019-05-12T09:04:51.876Z,8.80
2019-05-12T09:06:56.713Z,8.90
2019-05-12T09:09:00.561Z,9.00
2019-05-12T09:11:04.340Z,9.10
2019-05-12T09:13:08.013Z,9.10
2019-05-12T09:15:13.572Z,9.20
2019-05-12T09:17:17.078Z,9.30
2019-05-12T09:19:24.845Z,9.20
2019-05-12T09:21:31.586Z,9.20
2019-05-12T09:23:35.015Z,9.10
2019-05-12T09:25:39.492Z,9.10
2019-05-12T09:27:45.562Z,9.10
2019-05-12T09:29:47.775Z,9.10
2019-05-12T09:31:53.193Z,9.10
2019-05-12T09:33:57.919Z,9.20
2019-05-12T09:36:01.655Z,9.30
2019-05-12T09:38:06.254Z,9.20
2019-05-12T09:40:10.070Z,9.20
2019-05-12T09:42:14.255Z,9.20
2019-05-12T09:44:20.348Z,9.20
2019-05-12T09:46:28.291Z,9.20
2019-05-12T09:48:30.314Z,9.20
2019-05-12T09:50:34.215Z,9.20
2019-05-12T09:52:38.113Z,9.30
2019-05-12T09:57:17.703Z,9.20
2019-05-12T09:59:23.678Z,9.20
2019-05-12T10:01:29.236Z,9.20
2019-05-12T10:03:38.531Z,9.20
2019-05-12T10:05:41.226Z,9.20
2019-05-12T10:07:44.524Z,9.30
2019-05-12T10:09:49.245Z,9.30
2019-05-12T10:12:00.365Z,9.20
2019-05-12T10:14:00.446Z,9.20
2019-05-12T10:16:08.669Z,9.20
2019-05-12T10:18:11.380Z,9.20
2019-05-12T10:20:15.861Z,9.30
2019-05-12T10:22:19.645Z,9.30
2019-05-12T10:24:23.622Z,9.40
2019-05-12T10:26:27.382Z,9.40
2019-05-12T10:28:31.106Z,9.20
2019-05-12T10:30:34.825Z,9.30
2019-05-12T10:32:38.609Z,9.30
2019-05-12T10:34:44.420Z,9.30
2019-05-12T10:36:49.173Z,9.30
2019-05-12T10:38:53.806Z,9.30
2019-05-12T10:40:57.710Z,9.20
2019-05-12T10:43:04.157Z,9.20
2019-05-12T10:45:10.755Z,9.20
2019-05-12T10:47:13.919Z,9.20
2019-05-12T10:49:17.738Z,9.20
2019-05-12T10:51:23.724Z,9.20
2019-05-12T10:53:26.917Z,9.20
2019-05-12T10:55:30.620Z,9.20
2019-05-12T10:57:34.348Z,9.20
2019-05-12T10:59:38.847Z,9.10
2019-05-12T11:01:47.229Z,9.20
2019-05-12T11:03:50.753Z,9.10
2019-05-12T11:06:02.189Z,9.10
2019-05-12T11:08:00.381Z,9.10
2019-05-12T11:10:15.126Z,9.20
2019-05-12T11:12:13.819Z,9.20
2019-05-12T11:14:20.225Z,9.20
2019-05-12T11:16:30.664Z,9.20
2019-05-12T11:18:30.470Z,9.30
2019-05-12T11:20:34.249Z,9.30
2019-05-12T11:22:38.345Z,9.30
2019-05-12T11:24:44.325Z,9.40
2019-05-12T11:26:47.522Z,9.40
2019-05-12T11:28:53.150Z,9.30
2019-05-12T11:30:56.698Z,9.40
2019-05-12T11:33:00.424Z,9.30
2019-05-12T11:35:04.336Z,9.40
2019-05-12T11:37:08.058Z,9.40
2019-05-12T11:39:14.088Z,9.40
2019-05-12T11:41:20.290Z,9.30
2019-05-12T11:43:24.796Z,9.40
2019-05-12T11:45:28.390Z,9.40
2019-05-12T11:47:34.616Z,9.50
2019-05-12T11:49:37.511Z,9.50
2019-05-12T11:51:41.226Z,9.50
2019-05-12T11:53:44.960Z,9.60
2019-05-12T11:55:48.677Z,9.50
2019-05-12T11:57:54.443Z,9.50
2019-05-12T12:00:01.647Z,9.50
2019-05-12T12:02:03.605Z,9.60
2019-05-12T12:04:07.348Z,9.50
2019-05-12T12:06:13.002Z,9.60
2019-05-12T12:08:16.592Z,9.60
2019-05-12T12:10:20.393Z,9.60
2019-05-12T12:12:24.337Z,9.60
2019-05-12T12:14:28.203Z,9.70
2019-05-12T12:16:33.971Z,9.70
2019-05-12T12:18:37.551Z,9.70
2019-05-12T12:20:41.353Z,9.80
2019-05-12T12:22:46.250Z,9.80
2019-05-12T12:24:50.054Z,9.80
2019-05-12T12:26:53.868Z,9.80
2019-05-12T12:28:57.654Z,9.90
2019-05-12T12:31:05.075Z,9.80
2019-05-12T12:33:06.834Z,9.80
2019-05-12T12:35:14.719Z,9.80
2019-05-12T12:37:18.851Z,9.90
2019-05-12T12:39:23.630Z,9.90
2019-05-12T12:41:27.090Z,9.80
2019-05-12T12:43:30.822Z,9.80
2019-05-12T12:45:43.447Z,9.80
2019-05-12T12:47:49.322Z,9.80
2019-05-12T12:49:52.601Z,9.70
2019-05-12T12:51:56.373Z,9.70
2019-05-12T12:54:00.156Z,9.70
2019-05-12T12:56:04.318Z,9.60
2019-05-12T12:58:08.320Z,9.60
2019-05-12T13:00:15.044Z,9.60
2019-05-12T13:02:18.101Z,9.70
2019-05-12T13:04:21.903Z,9.70
2019-05-12T13:06:26.068Z,9.70
2019-05-12T13:08:29.919Z,9.60
2019-05-12T13:10:33.814Z,9.60
2019-05-12T13:12:37.674Z,9.60
2019-05-12T13:14:41.456Z,9.60
2019-05-12T13:16:49.307Z,9.70
2019-05-12T13:18:50.921Z,9.60
2019-05-12T13:20:57.919Z,9.60
2019-05-12T13:23:00.355Z,9.70
2019-05-12T13:25:08.626Z,9.60
2019-05-12T13:27:11.135Z,9.50
2019-05-12T13:29:14.993Z,9.60
2019-05-12T13:31:18.812Z,9.60
2019-05-12T13:33:23.377Z,9.60
2019-05-12T13:35:27.417Z,9.60
2019-05-12T13:37:31.253Z,9.50
2019-05-12T13:39:35.240Z,9.60
2019-05-12T13:41:38.966Z,9.60
2019-05-12T13:43:42.937Z,9.60
2019-05-12T13:45:46.626Z,9.60
2019-05-12T13:47:50.326Z,9.50
2019-05-12T13:49:54.534Z,9.60
2019-05-12T13:51:58.283Z,9.60
2019-05-12T13:54:03.831Z,9.60
2019-05-12T13:56:07.348Z,9.60
2019-05-12T13:58:13.453Z,9.70
2019-05-12T14:00:16.852Z,9.70
2019-05-12T14:02:22.024Z,9.70
2019-05-12T14:04:27.696Z,9.60
2019-05-12T14:06:37.452Z,9.50
2019-05-12T14:08:36.717Z,9.50
2019-05-12T14:10:46.479Z,9.30
2019-05-12T14:12:46.009Z,9.30
2019-05-12T14:14:49.760Z,9.20
2019-05-12T14:16:59.077Z,9.30
2019-05-12T14:19:00.507Z,9.30
2019-05-12T14:21:04.371Z,9.40
2019-05-12T14:23:08.117Z,9.50
2019-05-12T14:25:14.875Z,9.50
2019-05-12T14:27:19.244Z,9.50
2019-05-12T14:29:26.510Z,9.60
2019-05-12T14:31:35.110Z,9.70
2019-05-12T14:33:37.526Z,9.60
2019-05-12T14:35:41.174Z,9.60
2019-05-12T14:37:45.789Z,9.50
2019-05-12T14:39:50.412Z,9.70
2019-05-12T14:41:54.681Z,9.70
2019-05-12T14:44:01.725Z,9.80
2019-05-12T14:46:06.137Z,9.90
2019-05-12T14:48:09.569Z,10.00
2019-05-12T14:50:14.142Z,10.10
2019-05-12T14:52:17.965Z,10.20
2019-05-12T14:54:23.915Z,10.30
2019-05-12T14:56:27.513Z,10.30
2019-05-12T14:58:33.696Z,10.30
2019-05-12T15:00:36.642Z,10.30
2019-05-12T15:02:40.378Z,10.30
2019-05-12T15:04:44.162Z,10.10
2019-05-12T15:06:47.978Z,10.00
2019-05-12T15:08:54.097Z,10.00
2019-05-12T15:10:57.956Z,10.00
2019-05-12T15:13:03.434Z,10.00
2019-05-12T15:15:09.174Z,10.00
2019-05-12T15:17:21.955Z,10.00
2019-05-12T15:19:20.778Z,10.10
2019-05-12T15:21:27.324Z,10.10
2019-05-12T15:23:36.993Z,10.10
2019-05-12T15:25:35.839Z,10.10
2019-05-12T15:27:45.244Z,10.10
2019-05-12T15:29:49.977Z,10.10
2019-05-12T15:31:55.822Z,10.00
2019-05-12T15:33:56.347Z,10.00
2019-05-12T15:36:00.163Z,10.00
2019-05-12T15:38:04.012Z,10.00
2019-05-12T15:40:08.392Z,10.10
2019-05-12T15:42:14.172Z,10.10
2019-05-12T15:44:23.181Z,10.30
2019-05-12T15:46:24.547Z,10.50
2019-05-12T15:48:28.431Z,10.80
2019-05-12T15:50:34.230Z,11.00
2019-05-12T15:52:42.266Z,11.00
2019-05-12T15:54:49.428Z,11.10
2019-05-12T15:56:48.498Z,11.20
2019-05-12T15:58:55.882Z,11.20
2019-05-12T16:00:58.137Z,11.40
2019-05-12T16:03:02.418Z,11.40
2019-05-12T16:05:08.108Z,11.40
2019-05-12T16:07:14.063Z,11.50
2019-05-12T16:09:17.290Z,11.50
2019-05-12T16:11:21.001Z,11.50
2019-05-12T16:13:24.812Z,11.40
2019-05-12T16:15:28.537Z,11.20
2019-05-12T16:17:34.182Z,11.00
2019-05-12T16:19:37.877Z,11.00
2019-05-12T16:21:45.347Z,10.80
2019-05-12T16:23:47.173Z,10.60
2019-05-12T16:25:50.894Z,10.60
2019-05-12T16:27:54.884Z,10.60
2019-05-12T16:29:58.703Z,10.60
2019-05-12T16:32:04.482Z,10.70
2019-05-12T16:34:07.885Z,10.70
2019-05-12T16:36:14.284Z,10.70
2019-05-12T16:38:19.937Z,10.70
2019-05-12T16:40:23.852Z,10.80
2019-05-12T16:42:27.763Z,10.90
2019-05-12T16:44:31.902Z,11.00
2019-05-12T16:46:35.946Z,10.90
2019-05-12T16:48:42.253Z,10.90
2019-05-12T16:50:45.101Z,11.00
2019-05-12T16:52:48.809Z,10.90
2019-05-12T16:54:54.124Z,11.00
2019-05-12T16:57:00.218Z,10.90
2019-05-12T16:59:08.911Z,11.00
2019-05-12T17:01:08.826Z,11.00
2019-05-12T17:03:14.463Z,11.00
2019-05-12T17:05:20.449Z,11.00
2019-05-12T17:07:27.027Z,10.90
2019-05-12T17:09:28.821Z,10.90
2019-05-12T17:11:37.300Z,10.80
2019-05-12T17:13:38.081Z,10.70
2019-05-12T17:15:43.353Z,10.70
2019-05-12T17:17:50.662Z,10.70
2019-05-12T17:19:53.978Z,10.60
2019-05-12T17:21:59.503Z,10.60
2019-05-12T17:24:03.993Z,10.70
2019-05-12T17:26:07.946Z,10.70
2019-05-12T17:28:13.251Z,10.60
2019-05-12T17:30:17.514Z,10.60
2019-05-12T17:32:21.224Z,10.70
2019-05-12T17:34:25.890Z,10.70
2019-05-12T17:36:29.797Z,10.70
2019-05-12T17:38:34.533Z,10.60
2019-05-12T17:40:38.630Z,10.60
2019-05-12T17:42:44.151Z,10.70
2019-05-12T17:44:47.839Z,10.60
2019-05-12T17:46:54.004Z,10.60
2019-05-12T17:48:56.986Z,10.50
2019-05-12T17:51:03.150Z,10.60
2019-05-12T17:53:06.205Z,10.50
2019-05-12T17:55:10.915Z,10.50
2019-05-12T17:57:19.599Z,10.50
2019-05-12T17:59:27.582Z,10.50
2019-05-12T18:01:31.232Z,10.40
2019-05-12T18:03:31.077Z,10.40
2019-05-12T18:05:34.853Z,10.30
2019-05-12T18:07:38.565Z,10.30
2019-05-12T18:09:44.206Z,10.30
2019-05-12T18:11:52.580Z,10.30
2019-05-12T18:14:01.131Z,10.30
2019-05-12T18:15:58.550Z,10.20
2019-05-12T18:18:04.076Z,10.10
2019-05-12T18:20:07.944Z,10.10
2019-05-12T18:22:14.012Z,10.10
2019-05-12T18:24:17.104Z,10.10
2019-05-12T18:26:20.833Z,10.10
2019-05-12T18:28:27.404Z,10.10
2019-05-12T18:30:30.103Z,10.10
2019-05-12T18:32:33.823Z,10.00
2019-05-12T18:34:37.611Z,10.00
2019-05-12T18:36:41.458Z,10.00
2019-05-12T18:38:45.204Z,10.00
2019-05-12T18:40:48.933Z,9.90
2019-05-12T18:42:53.437Z,9.90
2019-05-12T18:45:04.615Z,9.90
2019-05-12T18:47:04.308Z,9.90
2019-05-12T18:49:12.259Z,9.90
2019-05-12T18:51:16.919Z,9.90
2019-05-12T18:53:27.259Z,9.90
2019-05-12T18:55:29.251Z,9.90
2019-05-12T18:57:29.824Z,9.90
2019-05-12T18:59:34.011Z,9.90
2019-05-12T19:01:38.424Z,9.90
2019-05-12T19:03:49.722Z,9.90
2019-05-12T19:05:47.642Z,9.90
2019-05-12T19:07:51.451Z,9.90
2019-05-12T19:09:55.177Z,9.90
2019-05-12T19:11:59.127Z,9.80
2019-05-12T19:14:07.688Z,9.80
2019-05-12T19:16:14.187Z,9.80
2019-05-12T19:18:18.302Z,9.80
2019-05-12T19:20:24.033Z,9.80
2019-05-12T19:22:28.348Z,9.80
2019-05-12T19:24:36.009Z,9.70
2019-05-12T19:26:38.262Z,9.70
2019-05-12T19:28:52.481Z,9.70
2019-05-12T19:30:50.324Z,9.70
2019-05-12T19:32:54.905Z,9.70
2019-05-12T19:34:59.070Z,9.60
2019-05-12T19:37:03.321Z,9.60
2019-05-12T19:39:08.811Z,9.60
2019-05-12T19:41:13.924Z,9.60
2019-05-12T19:43:18.097Z,9.60
2019-05-12T19:45:24.213Z,9.50
2019-05-12T19:47:33.514Z,9.50
2019-05-12T19:49:46.654Z,9.50
2019-05-12T19:51:38.552Z,9.60
2019-05-12T19:53:43.735Z,9.60
2019-05-12T19:55:47.924Z,9.60
2019-05-12T19:57:54.052Z,9.50
2019-05-12T19:59:57.915Z,9.60
2019-05-12T20:02:03.892Z,9.60
2019-05-12T20:04:07.047Z,9.60
2019-05-12T20:06:13.383Z,9.60
2019-05-12T20:08:16.477Z,9.60
2019-05-12T20:10:24.147Z,9.60
2019-05-12T20:12:27.151Z,9.60
2019-05-12T20:14:30.934Z,9.60
2019-05-12T20:16:34.807Z,9.60
2019-05-12T20:18:42.734Z,9.60
2019-05-12T20:20:45.265Z,9.60
2019-05-12T20:22:49.009Z,9.60
2019-05-12T20:24:53.742Z,9.60
2019-05-12T20:26:57.575Z,9.60
2019-05-12T20:29:01.404Z,9.60
2019-05-12T20:31:06.059Z,9.60
2019-05-12T20:33:10.141Z,9.60
2019-05-12T20:35:14.740Z,9.60
2019-05-12T20:37:18.814Z,9.50
2019-05-12T20:39:24.474Z,9.50
2019-05-12T20:41:27.921Z,9.50
2019-05-12T20:43:33.180Z,9.50
2019-05-12T20:45:40.820Z,9.60
2019-05-12T20:47:45.083Z,9.60
2019-05-12T20:49:50.925Z,9.60
2019-05-12T20:52:03.359Z,9.60
2019-05-12T20:53:58.945Z,9.60
2019-05-12T20:56:03.675Z,9.70
2019-05-12T20:58:07.514Z,9.70
2019-05-12T21:00:14.067Z,9.70
2019-05-12T21:02:17.293Z,9.70
2019-05-12T21:04:30.393Z,9.70
2019-05-12T21:06:26.623Z,9.60
2019-05-12T21:08:30.405Z,9.70
2019-05-12T21:10:34.334Z,9.70
2019-05-12T21:12:40.274Z,9.70
2019-05-12T21:14:51.506Z,9.70
2019-05-12T21:16:48.908Z,9.70
2019-05-12T21:19:02.124Z,9.70
2019-05-12T21:20:58.309Z,9.70
2019-05-12T21:23:02.062Z,9.70
2019-05-12T21:25:10.711Z,9.70
2019-05-12T21:27:15.821Z,9.70
2019-05-12T21:29:19.133Z,9.70
2019-05-12T21:31:28.962Z,9.70
2019-05-12T21:33:31.436Z,9.70
2019-05-12T21:35:40.859Z,9.70
2019-05-12T21:37:45.778Z,9.70
2019-05-12T21:39:46.871Z,9.70
2019-05-12T21:41:51.968Z,9.60
2019-05-12T21:44:00.124Z,9.60
2019-05-12T21:46:06.700Z,9.60
2019-05-12T21:48:15.114Z,9.60
2019-05-12T21:50:15.021Z,9.50
2019-05-12T21:52:18.817Z,9.60
2019-05-12T21:54:24.209Z,9.60
2019-05-12T21:56:28.072Z,9.50
2019-05-12T21:58:31.882Z,9.50
2019-05-12T22:00:38.631Z,9.60
2019-05-12T22:02:42.409Z,9.60
2019-05-12T22:04:46.118Z,9.60
2019-05-12T22:06:51.207Z,9.60
2019-05-12T22:09:01.051Z,9.60
2019-05-12T22:11:09.090Z,9.60
2019-05-12T22:13:14.137Z,9.60
2019-05-12T22:15:24.500Z,9.60
2019-05-12T22:17:30.178Z,9.60
2019-05-12T22:19:37.725Z,9.60
2019-05-12T22:21:47.612Z,9.60
2019-05-12T22:23:51.290Z,9.60
2019-05-12T22:25:55.639Z,9.60
2019-05-12T22:27:59.279Z,9.60
2019-05-12T22:30:01.356Z,9.60
2019-05-12T22:32:05.463Z,9.60
2019-05-12T22:34:09.337Z,9.50
2019-05-12T22:36:20.785Z,9.50
2019-05-12T22:38:21.029Z,9.60
2019-05-12T22:40:23.982Z,9.50
2019-05-12T22:42:27.723Z,9.50
2019-05-12T22:44:31.425Z,9.60
2019-05-12T22:46:35.774Z,9.60
2019-05-12T22:48:40.697Z,9.50
2019-05-12T22:50:44.493Z,9.50
2019-05-12T22:52:49.600Z,9.50
2019-05-12T22:54:53.737Z,9.50
2019-05-12T22:56:57.618Z,9.50
2019-05-12T22:59:01.604Z,9.60
2019-05-12T23:01:05.578Z,9.60
2019-05-12T23:03:11.969Z,9.50
2019-05-12T23:05:16.970Z,9.50
2019-05-12T23:07:27.775Z,9.50
2019-05-12T23:09:29.905Z,9.50
2019-05-12T23:11:32.513Z,9.50
2019-05-12T23:13:40.931Z,9.40
2019-05-12T23:15:45.217Z,9.40
2019-05-12T23:17:49.382Z,9.40
2019-05-12T23:19:55.678Z,9.40
2019-05-12T23:21:59.051Z,9.40
2019-05-12T23:24:03.800Z,9.40
2019-05-12T23:26:07.735Z,9.30
2019-05-12T23:28:11.436Z,9.30
2019-05-12T23:30:15.997Z,9.30
2019-05-12T23:32:19.810Z,9.30
2019-05-12T23:34:23.509Z,9.30
2019-05-12T23:36:35.634Z,9.20
2019-05-12T23:38:33.905Z,9.20
2019-05-12T23:40:37.900Z,9.20
2019-05-12T23:42:41.595Z,9.10
2019-05-12T23:44:45.299Z,9.10
2019-05-12T23:46:49.068Z,9.00
2019-05-12T23:48:54.337Z,8.90
2019-05-12T23:50:58.175Z,8.90
2019-05-12T23:53:03.787Z,8.90
2019-05-12T23:55:07.445Z,8.80
2019-05-12T23:57:13.061Z,8.80
2019-05-12T23:59:16.563Z,8.70
